sensor_id;sensor_type;location;lat;lon;timestamp;P1;durP1;ratioP1;P2;durP2;ratioP2
84702;SDS011;74927;50.988;11.318;2024-02-15T00:02:22;1.23;;;1.08;;
84702;SDS011;74927;50.988;11.318;2024-02-15T00:04:47;1.63;;;1.40;;
84702;SDS011;74927;50.988;11.318;2024-02-15T00:07:19;2.70;;;1.63;;
84702;SDS011;74927;50.988;11.318;2024-02-15T00:09:50;3.95;;;2.22;;
84702;SDS011;74927;50.988;11.318;2024-02-15T00:12:16;1.90;;;1.40;;
84702;SDS011;74927;50.988;11.318;2024-02-15T00:14:51;1.70;;;1.58;;
84702;SDS011;74927;50.988;11.318;2024-02-15T00:17:16;1.30;;;1.20;;
84702;SDS011;74927;50.988;11.318;2024-02-15T00:19:43;1.88;;;1.30;;
84702;SDS011;74927;50.988;11.318;2024-02-15T00:22:09;1.30;;;1.20;;
84702;SDS011;74927;50.988;11.318;2024-02-15T00:24:36;1.92;;;1.33;;
84702;SDS011;74927;50.988;11.318;2024-02-15T00:27:02;1.75;;;1.25;;
84702;SDS011;74927;50.988;11.318;2024-02-15T00:29:29;1.40;;;1.30;;
84702;SDS011;74927;50.988;11.318;2024-02-15T00:31:55;2.47;;;1.67;;
84702;SDS011;74927;50.988;11.318;2024-02-15T00:34:20;1.70;;;1.48;;
84702;SDS011;74927;50.988;11.318;2024-02-15T00:36:46;1.50;;;1.40;;
84702;SDS011;74927;50.988;11.318;2024-02-15T00:39:11;2.03;;;1.50;;
84702;SDS011;74927;50.988;11.318;2024-02-15T00:41:41;1.73;;;1.52;;
84702;SDS011;74927;50.988;11.318;2024-02-15T00:44:08;2.58;;;1.63;;
84702;SDS011;74927;50.988;11.318;2024-02-15T00:46:35;1.58;;;1.45;;
84702;SDS011;74927;50.988;11.318;2024-02-15T00:49:01;2.08;;;1.80;;
84702;SDS011;74927;50.988;11.318;2024-02-15T00:51:27;2.53;;;2.15;;
84702;SDS011;74927;50.988;11.318;2024-02-15T00:53:52;2.60;;;2.30;;
84702;SDS011;74927;50.988;11.318;2024-02-15T00:56:18;2.30;;;2.00;;
84702;SDS011;74927;50.988;11.318;2024-02-15T00:58:43;2.28;;;1.98;;
84702;SDS011;74927;50.988;11.318;2024-02-15T01:01:09;2.55;;;2.05;;
84702;SDS011;74927;50.988;11.318;2024-02-15T01:03:35;2.50;;;2.20;;
84702;SDS011;74927;50.988;11.318;2024-02-15T01:06:01;3.05;;;2.20;;
84702;SDS011;74927;50.988;11.318;2024-02-15T01:08:30;2.03;;;1.70;;
84702;SDS011;74927;50.988;11.318;2024-02-15T01:10:56;2.35;;;2.10;;
84702;SDS011;74927;50.988;11.318;2024-02-15T01:13:21;2.95;;;2.65;;
84702;SDS011;74927;50.988;11.318;2024-02-15T01:15:50;2.90;;;2.13;;
84702;SDS011;74927;50.988;11.318;2024-02-15T01:18:15;1.90;;;1.65;;
84702;SDS011;74927;50.988;11.318;2024-02-15T01:20:41;2.17;;;1.98;;
84702;SDS011;74927;50.988;11.318;2024-02-15T01:23:06;2.58;;;2.10;;
84702;SDS011;74927;50.988;11.318;2024-02-15T01:25:38;2.45;;;1.90;;
84702;SDS011;74927;50.988;11.318;2024-02-15T01:28:08;2.35;;;2.10;;
84702;SDS011;74927;50.988;11.318;2024-02-15T01:30:39;1.75;;;1.65;;
84702;SDS011;74927;50.988;11.318;2024-02-15T01:33:08;2.67;;;1.98;;
84702;SDS011;74927;50.988;11.318;2024-02-15T01:35:48;2.55;;;2.35;;
84702;SDS011;74927;50.988;11.318;2024-02-15T01:38:14;3.00;;;1.90;;
84702;SDS011;74927;50.988;11.318;2024-02-15T01:40:46;3.38;;;2.47;;
84702;SDS011;74927;50.988;11.318;2024-02-15T01:43:15;2.80;;;2.30;;
84702;SDS011;74927;50.988;11.318;2024-02-15T01:45:44;3.17;;;2.50;;
84702;SDS011;74927;50.988;11.318;2024-02-15T01:48:12;3.20;;;2.10;;
84702;SDS011;74927;50.988;11.318;2024-02-15T01:50:58;2.50;;;2.30;;
84702;SDS011;74927;50.988;11.318;2024-02-15T01:53:23;3.70;;;2.58;;
84702;SDS011;74927;50.988;11.318;2024-02-15T01:55:56;3.20;;;2.30;;
84702;SDS011;74927;50.988;11.318;2024-02-15T01:58:31;3.30;;;1.88;;
84702;SDS011;74927;50.988;11.318;2024-02-15T02:01:04;2.85;;;2.25;;
84702;SDS011;74927;50.988;11.318;2024-02-15T02:03:30;2.40;;;1.80;;
84702;SDS011;74927;50.988;11.318;2024-02-15T02:05:56;1.23;;;0.90;;
84702;SDS011;74927;50.988;11.318;2024-02-15T02:08:21;1.90;;;1.10;;
84702;SDS011;74927;50.988;11.318;2024-02-15T02:10:47;2.42;;;1.33;;
84702;SDS011;74927;50.988;11.318;2024-02-15T02:13:22;1.45;;;0.93;;
84702;SDS011;74927;50.988;11.318;2024-02-15T02:16:04;1.20;;;1.02;;
84702;SDS011;74927;50.988;11.318;2024-02-15T02:18:44;2.05;;;1.50;;
84702;SDS011;74927;50.988;11.318;2024-02-15T02:21:11;2.33;;;2.10;;
84702;SDS011;74927;50.988;11.318;2024-02-15T02:23:40;1.60;;;1.50;;
84702;SDS011;74927;50.988;11.318;2024-02-15T02:26:06;2.13;;;1.48;;
84702;SDS011;74927;50.988;11.318;2024-02-15T02:28:35;1.98;;;1.50;;
84702;SDS011;74927;50.988;11.318;2024-02-15T02:31:01;1.92;;;1.52;;
84702;SDS011;74927;50.988;11.318;2024-02-15T02:33:47;1.40;;;1.15;;
84702;SDS011;74927;50.988;11.318;2024-02-15T02:36:14;2.05;;;1.63;;
84702;SDS011;74927;50.988;11.318;2024-02-15T02:38:40;1.77;;;1.48;;
84702;SDS011;74927;50.988;11.318;2024-02-15T02:41:15;3.00;;;1.67;;
84702;SDS011;74927;50.988;11.318;2024-02-15T02:43:47;2.10;;;1.30;;
84702;SDS011;74927;50.988;11.318;2024-02-15T02:46:13;2.50;;;1.90;;
84702;SDS011;74927;50.988;11.318;2024-02-15T02:48:38;2.35;;;1.73;;
84702;SDS011;74927;50.988;11.318;2024-02-15T02:51:07;2.45;;;1.80;;
84702;SDS011;74927;50.988;11.318;2024-02-15T02:53:36;2.30;;;1.80;;
84702;SDS011;74927;50.988;11.318;2024-02-15T02:56:01;1.58;;;1.48;;
84702;SDS011;74927;50.988;11.318;2024-02-15T02:58:27;2.35;;;1.88;;
84702;SDS011;74927;50.988;11.318;2024-02-15T03:00:53;1.50;;;1.40;;
84702;SDS011;74927;50.988;11.318;2024-02-15T03:03:29;2.03;;;1.63;;
84702;SDS011;74927;50.988;11.318;2024-02-15T03:05:55;1.90;;;1.70;;
84702;SDS011;74927;50.988;11.318;2024-02-15T03:08:20;1.40;;;1.30;;
84702;SDS011;74927;50.988;11.318;2024-02-15T03:10:47;1.80;;;1.50;;
84702;SDS011;74927;50.988;11.318;2024-02-15T03:13:18;1.30;;;1.20;;
84702;SDS011;74927;50.988;11.318;2024-02-15T03:15:48;1.90;;;1.20;;
84702;SDS011;74927;50.988;11.318;2024-02-15T03:18:17;1.25;;;1.15;;
84702;SDS011;74927;50.988;11.318;2024-02-15T03:20:43;1.63;;;1.02;;
84702;SDS011;74927;50.988;11.318;2024-02-15T03:23:08;1.35;;;1.10;;
84702;SDS011;74927;50.988;11.318;2024-02-15T03:25:34;1.20;;;1.10;;
84702;SDS011;74927;50.988;11.318;2024-02-15T03:28:00;1.35;;;1.20;;
84702;SDS011;74927;50.988;11.318;2024-02-15T03:30:32;1.20;;;0.98;;
84702;SDS011;74927;50.988;11.318;2024-02-15T03:33:02;1.63;;;1.10;;
84702;SDS011;74927;50.988;11.318;2024-02-15T03:35:31;0.63;;;0.63;;
84702;SDS011;74927;50.988;11.318;2024-02-15T03:37:57;0.95;;;0.50;;
84702;SDS011;74927;50.988;11.318;2024-02-15T03:40:23;0.82;;;0.57;;
84702;SDS011;74927;50.988;11.318;2024-02-15T03:42:53;0.80;;;0.60;;
84702;SDS011;74927;50.988;11.318;2024-02-15T03:45:19;0.70;;;0.40;;
84702;SDS011;74927;50.988;11.318;2024-02-15T03:47:45;1.77;;;0.70;;
84702;SDS011;74927;50.988;11.318;2024-02-15T03:50:11;1.35;;;0.60;;
84702;SDS011;74927;50.988;11.318;2024-02-15T03:52:49;0.93;;;0.82;;
84702;SDS011;74927;50.988;11.318;2024-02-15T03:55:17;0.85;;;0.68;;
84702;SDS011;74927;50.988;11.318;2024-02-15T03:57:43;1.33;;;0.60;;
84702;SDS011;74927;50.988;11.318;2024-02-15T04:00:10;0.68;;;0.50;;
84702;SDS011;74927;50.988;11.318;2024-02-15T04:02:36;0.98;;;0.60;;
84702;SDS011;74927;50.988;11.318;2024-02-15T04:05:02;0.70;;;0.52;;
84702;SDS011;74927;50.988;11.318;2024-02-15T04:07:36;0.95;;;0.75;;
84702;SDS011;74927;50.988;11.318;2024-02-15T04:10:01;0.55;;;0.55;;
84702;SDS011;74927;50.988;11.318;2024-02-15T04:12:27;0.88;;;0.68;;
84702;SDS011;74927;50.988;11.318;2024-02-15T04:14:56;0.50;;;0.40;;
84702;SDS011;74927;50.988;11.318;2024-02-15T04:17:34;0.77;;;0.50;;
84702;SDS011;74927;50.988;11.318;2024-02-15T04:20:06;1.38;;;0.50;;
84702;SDS011;74927;50.988;11.318;2024-02-15T04:22:33;0.77;;;0.77;;
84702;SDS011;74927;50.988;11.318;2024-02-15T04:25:05;0.50;;;0.50;;
84702;SDS011;74927;50.988;11.318;2024-02-15T04:27:35;0.63;;;0.63;;
84702;SDS011;74927;50.988;11.318;2024-02-15T04:30:01;0.75;;;0.65;;
84702;SDS011;74927;50.988;11.318;2024-02-15T04:32:30;0.60;;;0.60;;
84702;SDS011;74927;50.988;11.318;2024-02-15T04:35:01;2.10;;;0.60;;
84702;SDS011;74927;50.988;11.318;2024-02-15T04:37:28;0.60;;;0.60;;
84702;SDS011;74927;50.988;11.318;2024-02-15T04:39:54;0.45;;;0.45;;
84702;SDS011;74927;50.988;11.318;2024-02-15T04:42:24;0.60;;;0.60;;
84702;SDS011;74927;50.988;11.318;2024-02-15T04:44:57;0.70;;;0.68;;
84702;SDS011;74927;50.988;11.318;2024-02-15T04:47:23;1.05;;;0.80;;
84702;SDS011;74927;50.988;11.318;2024-02-15T04:49:49;1.35;;;1.02;;
84702;SDS011;74927;50.988;11.318;2024-02-15T04:52:14;2.00;;;0.73;;
84702;SDS011;74927;50.988;11.318;2024-02-15T04:54:40;0.95;;;0.80;;
84702;SDS011;74927;50.988;11.318;2024-02-15T04:57:05;1.08;;;0.68;;
84702;SDS011;74927;50.988;11.318;2024-02-15T04:59:33;1.02;;;0.70;;
84702;SDS011;74927;50.988;11.318;2024-02-15T05:01:59;0.80;;;0.80;;
84702;SDS011;74927;50.988;11.318;2024-02-15T05:04:26;1.35;;;0.95;;
84702;SDS011;74927;50.988;11.318;2024-02-15T05:06:51;0.50;;;0.50;;
84702;SDS011;74927;50.988;11.318;2024-02-15T05:09:17;1.55;;;0.98;;
84702;SDS011;74927;50.988;11.318;2024-02-15T05:11:43;0.70;;;0.70;;
84702;SDS011;74927;50.988;11.318;2024-02-15T05:14:12;1.00;;;0.80;;
84702;SDS011;74927;50.988;11.318;2024-02-15T05:16:44;1.13;;;0.98;;
84702;SDS011;74927;50.988;11.318;2024-02-15T05:19:13;1.02;;;0.90;;
84702;SDS011;74927;50.988;11.318;2024-02-15T05:21:39;1.20;;;0.93;;
84702;SDS011;74927;50.988;11.318;2024-02-15T05:24:05;0.98;;;0.85;;
84702;SDS011;74927;50.988;11.318;2024-02-15T05:26:31;0.90;;;0.90;;
84702;SDS011;74927;50.988;11.318;2024-02-15T05:29:00;1.17;;;1.08;;
84702;SDS011;74927;50.988;11.318;2024-02-15T05:31:25;0.90;;;0.90;;
84702;SDS011;74927;50.988;11.318;2024-02-15T05:33:52;0.82;;;0.82;;
84702;SDS011;74927;50.988;11.318;2024-02-15T05:36:19;1.45;;;0.88;;
84702;SDS011;74927;50.988;11.318;2024-02-15T05:38:47;1.08;;;0.98;;
84702;SDS011;74927;50.988;11.318;2024-02-15T05:41:13;1.13;;;0.73;;
84702;SDS011;74927;50.988;11.318;2024-02-15T05:43:39;1.38;;;0.85;;
84702;SDS011;74927;50.988;11.318;2024-02-15T05:46:06;3.17;;;0.90;;
84702;SDS011;74927;50.988;11.318;2024-02-15T05:48:33;1.42;;;1.25;;
84702;SDS011;74927;50.988;11.318;2024-02-15T05:51:05;1.50;;;1.05;;
84702;SDS011;74927;50.988;11.318;2024-02-15T05:53:32;1.33;;;1.15;;
84702;SDS011;74927;50.988;11.318;2024-02-15T05:56:04;1.98;;;1.00;;
84702;SDS011;74927;50.988;11.318;2024-02-15T05:58:35;2.03;;;1.20;;
84702;SDS011;74927;50.988;11.318;2024-02-15T06:01:02;1.92;;;1.55;;
84702;SDS011;74927;50.988;11.318;2024-02-15T06:03:31;1.63;;;1.52;;
84702;SDS011;74927;50.988;11.318;2024-02-15T06:05:59;1.83;;;1.60;;
84702;SDS011;74927;50.988;11.318;2024-02-15T06:08:27;2.60;;;1.60;;
84702;SDS011;74927;50.988;11.318;2024-02-15T06:10:55;1.30;;;0.90;;
84702;SDS011;74927;50.988;11.318;2024-02-15T06:13:20;1.50;;;1.17;;
84702;SDS011;74927;50.988;11.318;2024-02-15T06:15:46;1.65;;;1.55;;
84702;SDS011;74927;50.988;11.318;2024-02-15T06:18:17;2.95;;;1.80;;
84702;SDS011;74927;50.988;11.318;2024-02-15T06:20:59;2.17;;;1.40;;
84702;SDS011;74927;50.988;11.318;2024-02-15T06:23:25;1.48;;;1.25;;
84702;SDS011;74927;50.988;11.318;2024-02-15T06:25:53;1.98;;;1.25;;
84702;SDS011;74927;50.988;11.318;2024-02-15T06:28:23;2.63;;;1.50;;
84702;SDS011;74927;50.988;11.318;2024-02-15T06:31:11;1.80;;;1.40;;
84702;SDS011;74927;50.988;11.318;2024-02-15T06:33:57;3.53;;;1.50;;
84702;SDS011;74927;50.988;11.318;2024-02-15T06:36:45;3.75;;;2.03;;
84702;SDS011;74927;50.988;11.318;2024-02-15T06:39:33;2.10;;;1.90;;
84702;SDS011;74927;50.988;11.318;2024-02-15T06:42:12;2.72;;;1.80;;
84702;SDS011;74927;50.988;11.318;2024-02-15T06:44:46;2.63;;;1.70;;
84702;SDS011;74927;50.988;11.318;2024-02-15T06:47:13;5.15;;;2.30;;
84702;SDS011;74927;50.988;11.318;2024-02-15T06:49:42;2.90;;;2.58;;
84702;SDS011;74927;50.988;11.318;2024-02-15T06:52:09;4.13;;;2.63;;
84702;SDS011;74927;50.988;11.318;2024-02-15T06:54:39;3.50;;;2.45;;
84702;SDS011;74927;50.988;11.318;2024-02-15T06:57:05;3.05;;;2.20;;
84702;SDS011;74927;50.988;11.318;2024-02-15T06:59:31;3.28;;;2.17;;
84702;SDS011;74927;50.988;11.318;2024-02-15T07:01:57;3.45;;;2.38;;
84702;SDS011;74927;50.988;11.318;2024-02-15T07:04:27;4.50;;;3.10;;
84702;SDS011;74927;50.988;11.318;2024-02-15T07:06:52;6.05;;;2.92;;
84702;SDS011;74927;50.988;11.318;2024-02-15T07:09:20;3.42;;;2.35;;
84702;SDS011;74927;50.988;11.318;2024-02-15T07:11:46;3.78;;;2.90;;
84702;SDS011;74927;50.988;11.318;2024-02-15T07:14:13;4.43;;;2.33;;
84702;SDS011;74927;50.988;11.318;2024-02-15T07:16:39;4.40;;;3.05;;
84702;SDS011;74927;50.988;11.318;2024-02-15T07:19:05;4.13;;;2.55;;
84702;SDS011;74927;50.988;11.318;2024-02-15T07:21:34;3.80;;;2.42;;
84702;SDS011;74927;50.988;11.318;2024-02-15T07:23:59;4.38;;;1.92;;
84702;SDS011;74927;50.988;11.318;2024-02-15T07:26:25;2.97;;;1.88;;
84702;SDS011;74927;50.988;11.318;2024-02-15T07:28:54;2.75;;;1.73;;
84702;SDS011;74927;50.988;11.318;2024-02-15T07:31:21;3.22;;;1.80;;
84702;SDS011;74927;50.988;11.318;2024-02-15T07:33:50;2.33;;;2.00;;
84702;SDS011;74927;50.988;11.318;2024-02-15T07:36:19;11.18;;;3.47;;
84702;SDS011;74927;50.988;11.318;2024-02-15T07:38:47;3.15;;;2.05;;
84702;SDS011;74927;50.988;11.318;2024-02-15T07:41:13;2.83;;;1.90;;
84702;SDS011;74927;50.988;11.318;2024-02-15T07:43:40;2.10;;;1.90;;
84702;SDS011;74927;50.988;11.318;2024-02-15T07:46:06;3.53;;;1.88;;
84702;SDS011;74927;50.988;11.318;2024-02-15T07:48:32;3.17;;;2.17;;
84702;SDS011;74927;50.988;11.318;2024-02-15T07:50:57;3.35;;;1.77;;
84702;SDS011;74927;50.988;11.318;2024-02-15T07:53:23;2.00;;;1.80;;
84702;SDS011;74927;50.988;11.318;2024-02-15T07:55:50;2.90;;;1.80;;
84702;SDS011;74927;50.988;11.318;2024-02-15T07:58:15;2.60;;;1.70;;
84702;SDS011;74927;50.988;11.318;2024-02-15T08:00:43;2.53;;;1.92;;
84702;SDS011;74927;50.988;11.318;2024-02-15T08:03:09;1.90;;;1.70;;
84702;SDS011;74927;50.988;11.318;2024-02-15T08:05:35;2.20;;;1.70;;
84702;SDS011;74927;50.988;11.318;2024-02-15T08:08:02;2.45;;;1.75;;
84702;SDS011;74927;50.988;11.318;2024-02-15T08:10:28;2.28;;;1.67;;
84702;SDS011;74927;50.988;11.318;2024-02-15T08:12:54;1.90;;;1.73;;
84702;SDS011;74927;50.988;11.318;2024-02-15T08:15:22;2.15;;;1.95;;
84702;SDS011;74927;50.988;11.318;2024-02-15T08:17:49;2.30;;;1.88;;
84702;SDS011;74927;50.988;11.318;2024-02-15T08:20:15;2.92;;;1.58;;
84702;SDS011;74927;50.988;11.318;2024-02-15T08:22:46;1.73;;;1.40;;
84702;SDS011;74927;50.988;11.318;2024-02-15T08:25:13;2.20;;;1.60;;
84702;SDS011;74927;50.988;11.318;2024-02-15T08:27:41;3.00;;;1.90;;
84702;SDS011;74927;50.988;11.318;2024-02-15T08:30:10;4.07;;;2.33;;
84702;SDS011;74927;50.988;11.318;2024-02-15T08:32:41;2.65;;;2.00;;
84702;SDS011;74927;50.988;11.318;2024-02-15T08:35:07;2.72;;;1.65;;
84702;SDS011;74927;50.988;11.318;2024-02-15T08:37:37;2.78;;;1.88;;
84702;SDS011;74927;50.988;11.318;2024-02-15T08:40:04;2.42;;;1.90;;
84702;SDS011;74927;50.988;11.318;2024-02-15T08:42:39;3.38;;;1.83;;
84702;SDS011;74927;50.988;11.318;2024-02-15T08:45:06;2.03;;;1.83;;
84702;SDS011;74927;50.988;11.318;2024-02-15T08:47:37;2.45;;;1.60;;
84702;SDS011;74927;50.988;11.318;2024-02-15T08:50:07;2.45;;;1.80;;
84702;SDS011;74927;50.988;11.318;2024-02-15T08:52:37;2.00;;;1.77;;
84702;SDS011;74927;50.988;11.318;2024-02-15T08:55:05;3.03;;;2.72;;
84702;SDS011;74927;50.988;11.318;2024-02-15T08:57:32;3.20;;;2.70;;
84702;SDS011;74927;50.988;11.318;2024-02-15T08:59:58;2.95;;;2.42;;
84702;SDS011;74927;50.988;11.318;2024-02-15T09:02:24;3.83;;;1.85;;
84702;SDS011;74927;50.988;11.318;2024-02-15T09:04:49;2.97;;;2.00;;
84702;SDS011;74927;50.988;11.318;2024-02-15T09:07:15;2.60;;;1.90;;
84702;SDS011;74927;50.988;11.318;2024-02-15T09:09:40;3.05;;;1.80;;
84702;SDS011;74927;50.988;11.318;2024-02-15T09:12:06;2.85;;;1.92;;
84702;SDS011;74927;50.988;11.318;2024-02-15T09:14:32;2.40;;;2.00;;
84702;SDS011;74927;50.988;11.318;2024-02-15T09:16:59;2.97;;;1.40;;
84702;SDS011;74927;50.988;11.318;2024-02-15T09:19:25;3.28;;;1.98;;
84702;SDS011;74927;50.988;11.318;2024-02-15T09:21:51;1.92;;;1.73;;
84702;SDS011;74927;50.988;11.318;2024-02-15T09:24:18;3.33;;;1.80;;
84702;SDS011;74927;50.988;11.318;2024-02-15T09:26:44;3.08;;;2.10;;
84702;SDS011;74927;50.988;11.318;2024-02-15T09:29:09;2.05;;;1.70;;
84702;SDS011;74927;50.988;11.318;2024-02-15T09:31:35;2.55;;;2.00;;
84702;SDS011;74927;50.988;11.318;2024-02-15T09:34:01;2.72;;;1.65;;
84702;SDS011;74927;50.988;11.318;2024-02-15T09:36:33;2.53;;;1.90;;
84702;SDS011;74927;50.988;11.318;2024-02-15T09:38:59;1.80;;;1.65;;
84702;SDS011;74927;50.988;11.318;2024-02-15T09:41:25;1.80;;;1.48;;
84702;SDS011;74927;50.988;11.318;2024-02-15T09:43:50;2.10;;;1.60;;
84702;SDS011;74927;50.988;11.318;2024-02-15T09:46:17;2.30;;;1.60;;
84702;SDS011;74927;50.988;11.318;2024-02-15T09:48:43;9.23;;;7.03;;
84702;SDS011;74927;50.988;11.318;2024-02-15T09:51:14;2.05;;;1.58;;
84702;SDS011;74927;50.988;11.318;2024-02-15T09:53:43;1.77;;;1.65;;
84702;SDS011;74927;50.988;11.318;2024-02-15T09:56:09;2.03;;;1.83;;
84702;SDS011;74927;50.988;11.318;2024-02-15T09:58:38;2.03;;;1.70;;
84702;SDS011;74927;50.988;11.318;2024-02-15T10:01:04;2.22;;;2.00;;
84702;SDS011;74927;50.988;11.318;2024-02-15T10:03:34;2.47;;;1.50;;
84702;SDS011;74927;50.988;11.318;2024-02-15T10:06:02;1.55;;;1.30;;
84702;SDS011;74927;50.988;11.318;2024-02-15T10:08:29;3.75;;;2.08;;
84702;SDS011;74927;50.988;11.318;2024-02-15T10:11:07;3.20;;;2.47;;
84702;SDS011;74927;50.988;11.318;2024-02-15T10:13:36;2.40;;;1.60;;
84702;SDS011;74927;50.988;11.318;2024-02-15T10:16:13;2.92;;;1.33;;
84702;SDS011;74927;50.988;11.318;2024-02-15T10:18:43;2.33;;;1.50;;
84702;SDS011;74927;50.988;11.318;2024-02-15T10:21:09;1.50;;;1.40;;
84702;SDS011;74927;50.988;11.318;2024-02-15T10:23:36;1.75;;;1.38;;
84702;SDS011;74927;50.988;11.318;2024-02-15T10:26:09;2.25;;;2.03;;
84702;SDS011;74927;50.988;11.318;2024-02-15T10:28:44;1.85;;;1.10;;
84702;SDS011;74927;50.988;11.318;2024-02-15T10:31:10;3.00;;;1.30;;
84702;SDS011;74927;50.988;11.318;2024-02-15T10:33:38;1.58;;;1.27;;
84702;SDS011;74927;50.988;11.318;2024-02-15T10:36:05;1.55;;;1.45;;
84702;SDS011;74927;50.988;11.318;2024-02-15T10:38:32;2.00;;;1.80;;
84702;SDS011;74927;50.988;11.318;2024-02-15T10:41:02;1.15;;;1.05;;
84702;SDS011;74927;50.988;11.318;2024-02-15T10:43:30;1.38;;;1.25;;
84702;SDS011;74927;50.988;11.318;2024-02-15T10:45:57;3.40;;;1.63;;
84702;SDS011;74927;50.988;11.318;2024-02-15T10:48:24;2.85;;;1.30;;
84702;SDS011;74927;50.988;11.318;2024-02-15T10:50:49;2.65;;;1.48;;
84702;SDS011;74927;50.988;11.318;2024-02-15T10:55:59;2.83;;;1.35;;
84702;SDS011;74927;50.988;11.318;2024-02-15T10:58:32;2.78;;;2.38;;
84702;SDS011;74927;50.988;11.318;2024-02-15T11:01:02;2.25;;;1.85;;
84702;SDS011;74927;50.988;11.318;2024-02-15T11:03:36;2.13;;;1.30;;
84702;SDS011;74927;50.988;11.318;2024-02-15T11:06:14;1.40;;;1.30;;
84702;SDS011;74927;50.988;11.318;2024-02-15T11:08:41;2.08;;;1.88;;
84702;SDS011;74927;50.988;11.318;2024-02-15T11:11:09;1.85;;;1.42;;
84702;SDS011;74927;50.988;11.318;2024-02-15T11:13:37;1.65;;;1.38;;
84702;SDS011;74927;50.988;11.318;2024-02-15T11:16:03;2.33;;;1.27;;
84702;SDS011;74927;50.988;11.318;2024-02-15T11:18:41;2.03;;;1.60;;
84702;SDS011;74927;50.988;11.318;2024-02-15T11:21:16;1.95;;;1.67;;
84702;SDS011;74927;50.988;11.318;2024-02-15T11:24:48;2.97;;;1.63;;
84702;SDS011;74927;50.988;11.318;2024-02-15T11:26:53;1.70;;;1.38;;
84702;SDS011;74927;50.988;11.318;2024-02-15T11:35:10;2.38;;;1.63;;
84702;SDS011;74927;50.988;11.318;2024-02-15T11:43:06;1.52;;;1.42;;
84702;SDS011;74927;50.988;11.318;2024-02-15T11:45:33;1.63;;;1.10;;
84702;SDS011;74927;50.988;11.318;2024-02-15T11:48:06;1.67;;;1.10;;
84702;SDS011;74927;50.988;11.318;2024-02-15T11:50:36;1.27;;;1.10;;
84702;SDS011;74927;50.988;11.318;2024-02-15T11:53:04;2.03;;;1.60;;
84702;SDS011;74927;50.988;11.318;2024-02-15T11:55:34;2.03;;;1.10;;
84702;SDS011;74927;50.988;11.318;2024-02-15T11:58:01;2.45;;;1.40;;
84702;SDS011;74927;50.988;11.318;2024-02-15T12:00:48;1.80;;;1.33;;
84702;SDS011;74927;50.988;11.318;2024-02-15T12:03:32;1.42;;;1.30;;
84702;SDS011;74927;50.988;11.318;2024-02-15T12:06:19;2.17;;;1.42;;
84702;SDS011;74927;50.988;11.318;2024-02-15T12:09:03;2.60;;;1.70;;
84702;SDS011;74927;50.988;11.318;2024-02-15T12:11:47;1.00;;;0.80;;
84702;SDS011;74927;50.988;11.318;2024-02-15T12:14:30;3.10;;;1.23;;
84702;SDS011;74927;50.988;11.318;2024-02-15T12:17:15;1.75;;;0.82;;
84702;SDS011;74927;50.988;11.318;2024-02-15T12:20:02;1.00;;;0.90;;
84702;SDS011;74927;50.988;11.318;2024-02-15T12:22:37;1.27;;;0.88;;
84702;SDS011;74927;50.988;11.318;2024-02-15T12:25:11;1.00;;;0.90;;
84702;SDS011;74927;50.988;11.318;2024-02-15T12:28:01;1.05;;;1.00;;
84702;SDS011;74927;50.988;11.318;2024-02-15T12:30:33;1.77;;;0.88;;
84702;SDS011;74927;50.988;11.318;2024-02-15T12:33:13;1.23;;;1.02;;
84702;SDS011;74927;50.988;11.318;2024-02-15T12:35:45;1.30;;;0.90;;
84702;SDS011;74927;50.988;11.318;2024-02-15T12:38:12;1.00;;;0.90;;
84702;SDS011;74927;50.988;11.318;2024-02-15T12:40:41;1.42;;;1.00;;
84702;SDS011;74927;50.988;11.318;2024-02-15T12:43:07;1.20;;;0.95;;
84702;SDS011;74927;50.988;11.318;2024-02-15T12:45:37;1.10;;;1.00;;
84702;SDS011;74927;50.988;11.318;2024-02-15T12:48:04;2.78;;;2.55;;
84702;SDS011;74927;50.988;11.318;2024-02-15T12:50:37;2.13;;;1.35;;
84702;SDS011;74927;50.988;11.318;2024-02-15T12:53:06;2.47;;;1.17;;
84702;SDS011;74927;50.988;11.318;2024-02-15T12:58:39;1.13;;;1.02;;
84702;SDS011;74927;50.988;11.318;2024-02-15T13:01:05;1.88;;;1.20;;
84702;SDS011;74927;50.988;11.318;2024-02-15T13:03:37;2.25;;;1.20;;
84702;SDS011;74927;50.988;11.318;2024-02-15T13:06:23;1.80;;;1.23;;
84702;SDS011;74927;50.988;11.318;2024-02-15T13:08:49;2.08;;;1.30;;
84702;SDS011;74927;50.988;11.318;2024-02-15T13:11:14;1.60;;;1.27;;
84702;SDS011;74927;50.988;11.318;2024-02-15T13:13:44;2.50;;;1.40;;
84702;SDS011;74927;50.988;11.318;2024-02-15T13:16:09;1.88;;;1.17;;
84702;SDS011;74927;50.988;11.318;2024-02-15T13:18:35;1.25;;;0.98;;
84702;SDS011;74927;50.988;11.318;2024-02-15T13:21:01;1.42;;;1.20;;
84702;SDS011;74927;50.988;11.318;2024-02-15T13:23:26;1.40;;;1.30;;
84702;SDS011;74927;50.988;11.318;2024-02-15T13:25:52;1.65;;;1.20;;
84702;SDS011;74927;50.988;11.318;2024-02-15T13:28:18;2.05;;;1.35;;
84702;SDS011;74927;50.988;11.318;2024-02-15T13:30:43;2.20;;;1.40;;
84702;SDS011;74927;50.988;11.318;2024-02-15T13:33:13;1.50;;;1.40;;
84702;SDS011;74927;50.988;11.318;2024-02-15T13:35:39;2.65;;;1.10;;
84702;SDS011;74927;50.988;11.318;2024-02-15T13:38:04;1.45;;;1.23;;
84702;SDS011;74927;50.988;11.318;2024-02-15T13:40:30;4.30;;;1.42;;
84702;SDS011;74927;50.988;11.318;2024-02-15T13:42:59;1.85;;;1.20;;
84702;SDS011;74927;50.988;11.318;2024-02-15T13:45:38;1.20;;;1.08;;
84702;SDS011;74927;50.988;11.318;2024-02-15T13:48:05;2.20;;;1.55;;
84702;SDS011;74927;50.988;11.318;2024-02-15T13:50:34;1.90;;;1.20;;
84702;SDS011;74927;50.988;11.318;2024-02-15T13:53:00;1.55;;;1.15;;
84702;SDS011;74927;50.988;11.318;2024-02-15T13:55:26;1.42;;;1.20;;
84702;SDS011;74927;50.988;11.318;2024-02-15T13:57:53;1.40;;;1.30;;
84702;SDS011;74927;50.988;11.318;2024-02-15T14:00:21;1.48;;;1.38;;
84702;SDS011;74927;50.988;11.318;2024-02-15T14:02:54;1.13;;;1.08;;
84702;SDS011;74927;50.988;11.318;2024-02-15T14:05:24;2.60;;;1.10;;
84702;SDS011;74927;50.988;11.318;2024-02-15T14:07:51;1.40;;;1.10;;
84702;SDS011;74927;50.988;11.318;2024-02-15T14:10:21;1.50;;;1.20;;
84702;SDS011;74927;50.988;11.318;2024-02-15T14:12:48;1.30;;;1.20;;
84702;SDS011;74927;50.988;11.318;2024-02-15T14:15:18;1.52;;;1.20;;
84702;SDS011;74927;50.988;11.318;2024-02-15T14:17:46;2.10;;;1.35;;
84702;SDS011;74927;50.988;11.318;2024-02-15T14:20:12;1.30;;;1.10;;
84702;SDS011;74927;50.988;11.318;2024-02-15T14:22:41;1.55;;;1.20;;
84702;SDS011;74927;50.988;11.318;2024-02-15T14:25:09;2.63;;;1.52;;
84702;SDS011;74927;50.988;11.318;2024-02-15T14:27:37;1.73;;;1.20;;
84702;SDS011;74927;50.988;11.318;2024-02-15T14:30:03;1.35;;;1.10;;
84702;SDS011;74927;50.988;11.318;2024-02-15T14:32:48;2.90;;;1.73;;
84702;SDS011;74927;50.988;11.318;2024-02-15T14:35:28;1.83;;;1.08;;
84702;SDS011;74927;50.988;11.318;2024-02-15T14:38:03;1.40;;;1.17;;
84702;SDS011;74927;50.988;11.318;2024-02-15T14:40:37;1.75;;;1.10;;
84702;SDS011;74927;50.988;11.318;2024-02-15T14:43:04;2.17;;;1.30;;
84702;SDS011;74927;50.988;11.318;2024-02-15T14:45:34;2.00;;;1.50;;
84702;SDS011;74927;50.988;11.318;2024-02-15T14:48:03;1.65;;;1.30;;
84702;SDS011;74927;50.988;11.318;2024-02-15T14:50:32;2.10;;;1.35;;
84702;SDS011;74927;50.988;11.318;2024-02-15T14:52:58;1.65;;;1.50;;
84702;SDS011;74927;50.988;11.318;2024-02-15T14:55:23;1.50;;;1.40;;
84702;SDS011;74927;50.988;11.318;2024-02-15T14:57:49;3.30;;;1.77;;
84702;SDS011;74927;50.988;11.318;2024-02-15T15:00:15;1.60;;;1.27;;
84702;SDS011;74927;50.988;11.318;2024-02-15T15:02:46;2.00;;;1.30;;